2015 La Tierra Torture Final

Saturday, May 2, 2015 8:30 AM (GMT-6) - Final results

Race info
Sport: Cycling - mtn cross-country
Location: Santa Fe, NM, United States
Start type: Mass start
Racers: 33
Laps: 3
Timed on: iPad
Timed with: Webscorer PRO
Updated: Monday, August 10, 2015 9:35 PM (GMT-6)
Comments:  3  View all
Organized by: CORE Crew
Race website: www.core-crew.com

Contact organizer

Use this form to send an email to the organizer.

Your name
Your email address
Confirm email address
Message to organizer
Send

2015 La Tierra Torture Final

Place Bib Racer name Affiliation Category Age Gender Lap 1
1 2 Cameron Brenneman Bike N Sport Racing  M Pro 38 M 37:09.9 -+0.00%100.00%
2 1 Damian Calvert Sport Systems Mountaintop Cycling  M Pro 42 M 37:11.7 +0:01.8+0.08%99.92%
3 4 Randy Flores RA Racing Apparel/Trek  M Pro 44 M 38:16.7 +1:06.8+3.00%97.09%
4 63 Joe Prinzivalli Mimmo Espresso  M Cat 1 50-59 51 M 38:49.7 +1:39.8+4.48%95.72%
5 39 Daniel Appelo Daniel Appelo  M Cat 1 30-39 38 M 39:35.7 +2:25.8+6.54%93.86%
6 30 Douglas Torres High Desert Bicycles  M Cat 1 19-29 24 M 39:36.7 +2:26.8+6.58%93.82%
7 50 Mick Harris   M Cat 1 40-49 43 M 39:38.2 +2:28.3+6.65%93.76%
8 45 Chris Eckstein Sport Systems Mountaintop Cycling  M Cat 1 40-49 41 M 39:39.3 +2:29.4+6.70%93.72%
9 3 Niklas Podhraski University Of New Mexico  M Pro 21 M 39:49.2 +2:39.3+7.14%93.33%
10 32 Joshua Barnett Stans No Tubes/Bicycle Company  M Cat 1 19-29 29 M 39:50.6 +2:40.7+7.21%93.28%
11 53 Gaige Sippy Iron Horse Bicycle Classic  M Cat 1 40-49 47 M 40:58.6 +3:48.7+10.26%90.70%
12 38 Parmenides Orpinel Notubes/Bicycle Company  M Cat 1 30-39 37 M 41:12.7 +4:02.8+10.89%90.18%
13 64 David Schulhofer Racing Apparel / Trek Racing  M Cat 1 50-59 51 M 41:16.6 +4:06.7+11.06%90.04%
14 31 Mark Castelo The Bicycle Company / NOTUBES New Mexico  M Cat 1 19-29 28 M 41:55.0 +4:45.1+12.79%88.66%
15 47 Daniel Swinton Bikeworks Albuquerque  M Cat 1 40-49 41 M 42:24.2 +5:14.3+14.09%87.65%
16 48 Marty Moriarty Sport Systems/Mountiantop Cycling  M Cat 1 40-49 42 M 42:28.7 +5:18.8+14.30%87.49%
17 61 David Jordan Trek Superstore/Olev Rapido  M Cat 1 50-59 51 M 42:52.9 +5:43.0+15.38%86.67%
18 68 Tempest Peter Rez Dog Racing  M Cat 1 50-59 52 M 42:53.8 +5:43.9+15.42%86.64%
19 40 Hadji Corona RA Racing Apparel / Trek  M Cat 1 30-39 38 M 42:58.7 +5:48.8+15.64%86.47%
20 69 Scott Wong Scott Wong  M Cat 1 50-59 57 M 43:01.1 +5:51.2+15.75%86.39%
21 49 Jacob Gonzales   M Cat 1 40-49 43 M 43:03.5 +5:53.6+15.86%86.31%
22 62 David Mount Team Fitaos  M Cat 1 50-59 51 M 43:11.3 +6:01.4+16.21%86.05%
23 55 Robert Romero Bike N Sport  M Cat 1 40-49 49 M 43:14.6 +6:04.7+16.35%85.94%
24 46 Jan Grande Grande Adventure Tours  M Cat 1 40-49 41 M 44:22.2 +7:12.3+19.39%83.76%
25 75 Jan Bear Bike N Sport  M Cat 1 60+ 60 M 44:27.5 +7:17.6+19.62%83.60%
26 65 Keevin Sharp Team ANB/Kordestani Cycling  M Cat 1 50-59 51 M 45:20.8 +8:10.9+22.01%81.96%
27 36 Gary Bell Ziavelo  M Cat 1 30-39 35 M 45:28.5 +8:18.6+22.36%81.73%
28 67 Barry O'melinn Barry O'melinn  M Cat 1 50-59 52 M 45:55.2 +8:45.3+23.56%80.93%
29 54 Michael Mangan   M Cat 1 40-49 48 M 45:56.4 +8:46.5+23.61%80.90%
30 60 Greg Geubelle The Bicycle Company  M Cat 1 50-59 51 M 46:20.2 +9:10.3+24.68%80.21%
31 35 Patrick Brandt   M Cat 1 30-39 30 M 47:04.3 +9:54.4+26.66%78.95%
32 76 Gary Johnson   M Cat 1 60+ 62 M 50:16.5 +13:06.6+35.28%73.92%
33 77 Bill Blankenship   M Cat 1 60+ 65 M 55:31.3 +18:21.4+49.39%66.94%
  • Comments (3)